Latest Weather Observations for Victoria River Downs

IDD60801

Issued at 5:05 pm CST Saturday 23 August 2014 (issued every 30 minutes, with the page automatically refreshed every 10 minutes)

About weather observations | Map of weather stations | Latest weather observations for NT | Other Formats
Station Details ID: 014825 Name: VICTORIA RIVER DOWNS Lat: -16.40 Lon: 131.01 Height: 88.5 m
Data from the previous 72 hours. | See also: Recent months at Victoria River Downs
Date/Time
CST
Temp
°C
App
Temp
°C
Dew
Point
Rel
Hum
%
Delta-T
°C
Wind Press
QNH
hPa
Press
MSL
hPa
Rain
since 9 am
mm
Dir
 
Spd
km/h
Gust
km/h
Spd
kts
Gust
kts
23/05:00pm 30.2 25.1 -2.3 12 15.0 SE 15 26 8 14 1014.0 - 0.0
23/04:30pm 30.3 25.2 -2.2 12 15.0 SE 15 26 8 14 1014.0 - 0.0
23/04:00pm 30.2 24.1 -3.5 11 15.2 SSE 19 24 10 13 1014.3 - 0.0
23/03:30pm 30.1 24.8 -3.6 11 15.2 ESE 15 24 8 13 1014.5 - 0.0
23/03:00pm 29.8 24.8 -1.5 13 14.6 ESE 15 20 8 11 1014.8 1014.5 0.0
23/02:30pm 30.2 24.9 -3.5 11 15.2 SE 15 28 8 15 1015.2 - 0.0
23/02:00pm 29.4 23.8 -2.9 12 14.7 ENE 17 28 9 15 1015.6 - 0.0
23/01:30pm 29.7 23.4 -3.9 11 15.0 E 20 33 11 18 1016.2 - 0.0
23/01:00pm 28.7 22.1 -3.5 12 14.4 E 22 33 12 18 1016.7 - 0.0
23/12:30pm 28.6 22.5 -3.6 12 14.3 E 19 30 10 16 1017.4 - 0.0
23/12:00pm 27.6 21.5 -2.3 14 13.5 SE 20 30 11 16 1018.1 1017.9 0.0
23/11:30am 27.2 21.1 -2.6 14 13.4 E 20 33 11 18 1018.7 - 0.0
23/11:00am 26.2 21.9 -1.6 16 12.6 SE 11 17 6 9 1019.3 - 0.0
23/10:30am 23.7 20.1 -2.0 18 11.3 S 7 15 4 8 1019.7 - 0.0
23/10:00am 22.3 18.6 -3.1 18 10.8 ESE 7 11 4 6 1020.0 - 0.0
23/09:30am 19.7 16.5 -3.2 21 9.5 S 4 9 2 5 1020.1 - 0.0
23/09:00am 17.5 15.0 -3.8 23 8.5 CALM 0 6 0 3 1020.0 1019.6 0.0
23/08:30am 15.4 11.9 -3.0 28 7.3 S 6 9 3 5 1019.7 - 0.0
23/08:03am 11.8 10.0 1.4 49 4.4 CALM 0 0 0 0 1019.4 - 0.0
23/08:00am 11.8 10.0 1.4 49 4.4 CALM 0 0 0 0 1019.4 - 0.0
23/07:30am 7.8 4.0 -3.7 44 4.1 WNW 7 15 4 8 1019.2 - 0.0
23/07:00am 8.0 4.1 -5.1 39 4.6 W 7 7 4 4 1018.3 - 0.0
23/06:30am 6.6 2.2 -5.7 41 4.2 WNW 9 9 5 5 1017.9 - 0.0
23/06:00am 6.4 2.4 -5.9 41 4.1 W 7 9 4 5 1017.4 1017.1 0.0
23/05:30am 6.6 2.6 -5.7 41 4.2 W 7 9 4 5 1017.2 - 0.0
23/05:00am 6.3 2.3 -5.6 42 4.0 WSW 7 9 4 5 1016.9 - 0.0
23/04:30am 6.1 2.1 -5.5 43 3.9 WNW 7 9 4 5 1016.8 - 0.0
23/04:00am 6.7 2.7 -5.6 41 4.2 WNW 7 9 4 5 1016.8 - 0.0
23/03:30am 6.9 2.9 -5.7 40 4.3 WNW 7 7 4 4 1016.8 - 0.0
23/03:00am 7.6 5.1 -3.9 44 4.1 CALM 0 6 0 3 1016.8 1016.5 0.0
23/02:30am 7.7 3.8 -6.4 36 4.7 WNW 6 7 3 4 1016.9 - 0.0
23/02:00am 7.9 3.9 -5.5 38 4.6 NW 7 9 4 5 1017.0 - 0.0
23/01:30am 8.5 4.6 -6.1 35 5.0 W 6 7 3 4 1017.0 - 0.0
23/01:00am 9.1 5.0 -6.3 33 5.3 W 7 7 4 4 1017.3 - 0.0
23/12:30am 9.5 5.5 -5.6 34 5.3 NW 7 9 4 5 1017.4 - 0.0
23/12:00am 10.0 7.3 -5.9 32 5.6 NW 0 0 0 0 1017.4 1017.1 0.0
 
Date/Time
CST
Temp
°C
App
Temp
°C
Dew
Point
Rel
Hum
%
Delta-T
°C
Wind Press
QNH
hPa
Press
MSL
hPa
Rain
since 9 am
mm
Dir
 
Spd
km/h
Gust
km/h
Spd
kts
Gust
kts
22/11:30pm 10.5 7.6 -4.3 35 5.4 S 2 6 1 3 1017.4 - 0.0
22/11:00pm 11.3 7.3 -5.6 30 6.1 SSE 7 7 4 4 1017.4 - 0.0
22/10:30pm 12.5 8.4 -3.3 33 6.1 S 9 11 5 6 1017.4 - 0.0
22/10:00pm 13.5 9.3 -4.2 29 6.7 S 9 11 5 6 1017.1 - 0.0
22/09:30pm 14.4 9.9 -6.4 23 7.6 S 9 11 5 6 1016.8 - 0.0
22/09:00pm 16.7 12.7 -5.7 21 8.5 S 7 9 4 5 1016.7 1016.4 0.0
22/08:30pm 18.9 14.8 -6.7 17 9.8 S 7 9 4 5 1016.4 - 0.0
22/08:00pm 20.9 16.4 -6.7 15 10.8 SE 9 11 5 6 1015.9 - 0.0
22/07:30pm 22.0 17.6 -5.8 15 11.2 SE 9 11 5 6 1015.4 - 0.0
22/07:00pm 23.7 19.1 -7.4 12 12.3 SE 9 11 5 6 1015.0 - 0.0
22/06:30pm 25.9 21.0 -6.8 11 13.4 SE 11 19 6 10 1014.7 - 0.0
22/06:00pm 27.5 21.9 -6.8 10 14.3 SE 15 22 8 12 1014.4 1014.0 0.0
22/05:30pm 27.9 21.8 -7.9 9 14.7 SSE 17 28 9 15 1014.2 - 0.0
22/05:00pm 28.4 22.8 -6.1 10 14.7 SE 15 26 8 14 1014.1 - 0.0
22/04:30pm 28.9 23.4 -5.7 10 14.9 SSE 15 28 8 15 1014.0 - 0.0
22/04:00pm 28.8 23.9 -7.2 9 15.1 ESE 11 19 6 10 1014.0 - 0.0
22/03:30pm 29.1 22.7 -7.0 9 15.2 E 19 30 10 16 1014.1 - 0.0
22/03:00pm 29.3 24.2 -5.4 10 15.0 ESE 13 20 7 11 1014.5 1014.1 0.0
22/02:30pm 28.9 23.5 -8.6 8 15.3 SE 13 22 7 12 1014.8 - 0.0
22/02:00pm 28.1 22.0 -7.7 9 14.7 ESE 17 28 9 15 1015.4 - 0.0
22/01:30pm 28.2 22.2 -6.3 10 14.6 SSE 17 30 9 16 1016.1 - 0.0
22/01:00pm 27.5 21.1 -6.8 10 14.3 ESE 19 33 10 18 1016.8 - 0.0
22/12:30pm 27.4 21.1 -5.6 11 14.0 SSE 19 35 10 19 1017.5 - 0.0
22/12:00pm 26.1 20.5 -6.6 11 13.5 SE 15 22 8 12 1018.1 1017.8 0.0
22/11:30am 26.3 21.1 -6.5 11 13.6 ESE 13 26 7 14 1018.8 - 0.0
22/11:00am 25.3 18.9 -7.2 11 13.2 E 19 30 10 16 1019.4 - 0.0
22/10:30am 24.1 19.8 -5.0 14 12.1 ENE 9 13 5 7 1019.7 - 0.0
22/10:00am 22.3 18.5 -3.9 17 11.0 ESE 7 15 4 8 1020.0 - 0.0
22/09:30am 19.4 16.1 -4.8 19 9.7 SSW 4 7 2 4 1020.1 - 0.0
22/09:27am 19.1 15.9 -3.7 21 9.3 WSW 4 7 2 4 1020.1 - 0.0
22/09:00am 16.5 13.2 -4.1 24 8.1 W 4 7 2 4 1019.8 - 0.0
22/08:30am 14.1 10.4 -4.6 27 7.1 W 6 7 3 4 1019.7 - 0.0
22/08:02am 10.7 7.2 -2.7 39 5.1 W 6 7 3 4 1019.3 - 0.0
22/08:00am 11.0 7.6 -2.4 39 5.2 W 6 7 3 4 1019.3 - 0.0
22/07:30am 5.8 2.0 -3.8 50 3.4 W 7 9 4 5 1018.9 - 0.0
22/07:00am 5.1 1.5 -3.9 52 3.1 WNW 6 7 3 4 1018.6 - 0.0
22/06:30am 4.9 1.3 -3.9 53 3.0 S 6 9 3 5 1018.3 - 0.0
22/06:00am 5.8 3.3 -3.8 50 3.4 CALM 0 0 0 0 1017.9 1017.5 0.0
22/05:30am 6.1 2.2 -4.6 46 3.7 WSW 7 9 4 5 1017.3 - 0.0
22/05:00am 7.2 3.3 -4.2 44 4.0 W 7 9 4 5 1017.4 - 0.0
22/04:30am 7.9 - -3.3 45 4.1 - - - - - 1017.4 - 0.0
22/04:00am 7.3 - -3.8 45 4.0 - - - - - 1017.5 - 0.0
22/03:30am 7.6 5.3 -2.7 48 3.8 CALM 0 0 0 0 1017.6 - 0.0
22/03:00am 9.0 5.7 -1.1 49 3.9 SW 6 9 3 5 1017.7 1017.4 0.0
22/02:30am 8.8 5.2 -3.4 42 4.5 WNW 6 7 3 4 1017.8 - 0.0
22/02:00am 8.5 4.6 -4.6 39 4.7 W 7 7 4 4 1017.9 - 0.0
22/01:30am 9.3 5.6 -4.3 38 4.9 W 6 7 3 4 1018.0 - 0.0
22/01:00am 9.8 5.9 -4.2 37 5.1 WNW 7 9 4 5 1018.1 - 0.0
22/12:30am 10.1 6.9 -3.9 37 5.2 W 4 9 2 5 1018.1 - 0.0
22/12:00am 10.3 7.7 -4.5 35 5.4 CALM 0 0 0 0 1018.0 1017.7 0.0
 
Date/Time
CST
Temp
°C
App
Temp
°C
Dew
Point
Rel
Hum
%
Delta-T
°C
Wind Press
QNH
hPa
Press
MSL
hPa
Rain
since 9 am
mm
Dir
 
Spd
km/h
Gust
km/h
Spd
kts
Gust
kts
21/11:30pm 11.2 8.3 -4.1 34 5.7 SSE 2 7 1 4 1017.9 - 0.0
21/11:00pm 11.8 8.1 -4.3 32 6.0 SSE 6 7 3 4 1018.0 - 0.0
21/10:30pm 12.4 8.6 -3.8 32 6.1 SE 7 9 4 5 1017.9 - 0.0
21/10:00pm 14.2 10.4 -3.6 29 6.9 S 7 9 4 5 1017.9 - 0.0
21/09:30pm 14.4 10.9 -2.9 30 6.8 SSE 6 9 3 5 1017.6 - 0.0
21/09:21pm 14.9 11.1 -3.9 27 7.3 SSE 7 9 4 5 1017.5 - 0.0
21/09:00pm 16.8 12.5 -5.0 22 8.4 SSE 9 11 5 6 1017.4 1017.1 0.0
21/08:30pm 19.7 15.5 -3.9 20 9.6 S 9 13 5 7 1017.0 - 0.0
21/08:00pm 20.2 16.0 -4.1 19 9.9 SSE 9 13 5 7 1016.5 - 0.0
21/07:30pm 21.9 18.2 -2.7 19 10.5 SSE 7 9 4 5 1016.0 - 0.0
21/07:00pm 23.5 19.1 -5.5 14 11.9 SE 9 11 5 6 1015.5 - 0.0
21/06:30pm 25.6 21.3 -4.8 13 12.9 SE 9 15 5 8 1015.0 - 0.0
21/06:00pm 27.2 22.2 -4.6 12 13.7 SSE 13 22 7 12 1014.6 1014.2 0.0
21/05:30pm 27.8 22.3 -5.3 11 14.2 SSE 15 26 8 14 1014.4 - 0.0
21/05:00pm 28.3 23.5 -6.2 10 14.6 SSE 11 19 6 10 1014.2 - 0.0
21/04:30pm 28.3 22.7 -6.2 10 14.6 ESE 15 26 8 14 1014.0 - 0.0
21/04:00pm 28.6 22.7 -6.0 10 14.8 SSE 17 26 9 14 1014.0 - 0.0
21/03:30pm 28.5 22.3 -4.8 11 14.5 SSE 19 30 10 16 1014.1 - 0.0
21/03:00pm 28.5 22.8 -3.6 12 14.3 SSE 17 26 9 14 1014.4 1014.1 0.0
21/02:30pm 28.5 22.7 -4.8 11 14.5 SSE 17 30 9 16 1014.9 - 0.0
21/02:00pm 27.9 22.2 -4.1 12 14.0 ESE 17 33 9 18 1015.6 - 0.0
21/01:30pm 27.9 22.2 -4.1 12 14.0 SE 17 30 9 16 1016.2 - 0.0
21/01:00pm 27.2 20.8 -4.6 12 13.7 SE 20 30 11 16 1016.7 - 0.0
21/12:30pm 26.8 21.1 -3.9 13 13.4 SE 17 30 9 16 1017.2 - 0.0
21/12:00pm 26.5 20.3 -3.1 14 13.0 ESE 20 33 11 18 1017.7 1017.6 0.0
21/11:30am 26.2 20.5 -3.4 14 13.0 SE 17 30 9 16 1018.2 - 0.0
21/11:00am 25.4 19.3 -4.0 14 12.6 E 19 30 10 16 1018.5 - 0.0
21/10:30am 24.7 18.9 -4.6 14 12.4 E 17 26 9 14 1018.9 - 0.0
21/10:00am 22.3 18.8 -1.1 21 10.4 SE 7 13 4 7 1019.0 - 0.0
21/09:30am 20.6 17.1 -1.2 23 9.5 S 7 13 4 7 1018.8 - 0.0
21/09:22am 19.5 16.4 0.0 27 8.6 SW 6 9 3 5 1018.7 - 0.0
21/09:00am 17.3 14.9 0.0 31 7.5 S 2 9 1 5 1018.5 1018.1 0.0
21/08:30am 14.7 12.6 -1.0 34 6.5 CALM 0 0 0 0 1018.1 - 0.0
21/08:15am 12.2 10.2 -0.3 42 5.1 CALM 0 0 0 0 1018.1 - 0.0
21/08:00am 10.7 8.7 -0.4 46 4.5 CALM 0 0 0 0 1018.0 - 0.0
21/07:30am 7.2 3.8 -1.7 53 3.3 WNW 6 9 3 5 1017.7 - 0.0
21/07:00am 5.9 2.9 -1.7 58 2.8 WNW 4 9 2 5 1017.1 - 0.0
21/06:30am 7.1 3.9 -0.8 57 3.0 SSW 6 7 3 4 1016.7 - 0.0
21/06:00am 7.4 4.1 -1.5 53 3.4 WNW 6 9 3 5 1016.4 1016.1 0.0
21/05:30am 7.1 3.5 -1.8 53 3.3 NW 7 9 4 5 1016.3 - 0.0
21/05:00am 7.2 4.8 -0.5 58 3.0 NNW 2 7 1 4 1016.3 - 0.0
21/04:30am 8.6 5.5 0.1 55 3.4 S 6 7 3 4 1016.2 - 0.0
21/04:00am 8.7 6.5 -1.7 48 4.0 CALM 0 6 0 3 1016.3 - 0.0
21/03:30am 9.0 5.4 -2.3 45 4.3 WNW 7 7 4 4 1016.2 - 0.0
21/03:00am 9.6 6.1 -2.7 42 4.6 WNW 6 9 3 5 1016.3 1016.1 0.0
21/02:30am 9.8 6.4 -1.9 44 4.5 WNW 6 9 3 5 1016.6 - 0.0
21/02:00am 10.6 7.2 -1.8 42 4.8 W 6 7 3 4 1016.7 - 0.0
21/01:30am 11.3 7.7 -1.8 40 5.1 WNW 7 9 4 5 1016.9 - 0.0
21/01:00am 11.6 8.0 -1.9 39 5.3 WNW 7 9 4 5 1017.0 - 0.0
21/12:30am 12.3 8.7 -2.0 37 5.6 NW 7 9 4 5 1017.1 - 0.0
21/12:00am 13.1 10.8 -2.4 34 6.1 CALM 0 0 0 0 1017.1 1016.8 0.0
 
Date/Time
CST
Temp
°C
App
Temp
°C
Dew
Point
Rel
Hum
%
Delta-T
°C
Wind Press
QNH
hPa
Press
MSL
hPa
Rain
since 9 am
mm
Dir
 
Spd
km/h
Gust
km/h
Spd
kts
Gust
kts
20/11:30pm 15.6 12.2 -1.9 30 7.2 SSE 6 9 3 5 1017.1 - 0.0
20/11:00pm 17.9 14.4 -1.3 27 8.1 SSE 7 11 4 6 1017.0 - 0.0
20/10:30pm 19.4 15.6 -1.1 25 8.8 SSE 9 11 5 6 1016.9 - 0.0
20/10:00pm 20.2 16.3 -1.6 23 9.4 SSE 9 11 5 6 1016.8 - 0.0
20/09:30pm 20.8 17.0 -1.1 23 9.6 SSE 9 13 5 7 1016.6 - 0.0
20/09:00pm 21.3 17.7 -1.9 21 10.0 SE 7 11 4 6 1016.5 1016.2 0.0
20/08:30pm 22.4 18.5 -1.6 20 10.5 SSE 9 11 5 6 1016.2 - 0.0
20/08:00pm 23.0 19.1 -1.8 19 10.9 SSE 9 15 5 8 1015.7 - 0.0
20/07:30pm 23.6 19.6 -2.1 18 11.3 SSE 9 13 5 7 1015.3 - 0.0
20/07:00pm 24.8 20.6 -3.6 15 12.2 SSE 9 13 5 7 1015.0 - 0.0
20/06:30pm 26.4 22.0 -2.3 15 12.8 SE 11 17 6 9 1014.6 - 0.0
20/06:00pm 27.9 23.0 -3.0 13 13.8 SSE 13 22 7 12 1014.3 1013.9 0.0
20/05:30pm 28.7 23.8 -3.5 12 14.4 S 13 24 7 13 1014.2 - 0.0

Other Formats:

Comma delimited format used in spreadsheet applications
http://www.bom.gov.au/fwo/IDD60801/IDD60801.94232.axf

JavaScript Object Notation format (JSON) in row-major order
http://www.bom.gov.au/fwo/IDD60801/IDD60801.94232.json